Helston, United Kingdom
Current Conditions -  °F | °C
As of 6:50 AM on Thursday 23 Oct 2014 (Local Time) from EGDR Reporting Station
Drizzle Drizzle  
Wind Chill: 55°   Ceiling: 400
Heat Index: 55°   Visibility: 1.8mi
Dew Point: 55°   Wind: 16mph
Humidity: 100%   Direction: 220°SW
Pressure: 30.15"   Gusts: NA
Location:  50.08°N, 5.2°W
Report Text: EGDR 230550Z 22014KT 3000 -DZ SCT002 BKN004 OVC010 13/13 Q1021 AMB TEMPO 1500 DZ BR SCT001 RED
Loading
Personal Weather Stations






























Interactive Weather Map
Tropical Storm Tracking
New forecast layout! Learn more

10-Day Weather Forecast

Advertisements
Track Severe Weather on mobile